createdAt,value
2018-09-01T01:40:40.775Z,0
2018-09-01T03:51:18.801Z,3
2018-09-01T03:57:49.207Z,7
2018-09-01T04:01:19.466Z,10
2018-09-01T04:02:49.571Z,13
2018-09-01T04:04:19.634Z,17
2018-09-01T04:05:19.683Z,20
2018-09-01T04:06:19.721Z,23
2018-09-01T04:07:19.825Z,27
2018-09-01T04:07:49.877Z,30
2018-09-01T04:08:49.902Z,33
2018-09-01T04:09:19.955Z,37
2018-09-01T04:09:50.033Z,40
2018-09-01T04:10:20.002Z,43
2018-09-01T04:10:50.061Z,47
2018-09-01T04:11:20.060Z,50
2018-09-01T04:11:50.118Z,57
2018-09-01T04:12:20.116Z,60
2018-09-01T04:12:50.189Z,63
2018-09-01T04:13:20.181Z,70
2018-09-01T04:13:50.244Z,77
2018-09-01T04:14:20.242Z,80
2018-09-01T04:14:50.311Z,87
2018-09-01T04:15:20.286Z,93
2018-09-01T04:15:50.349Z,100
2018-09-01T04:16:20.359Z,110
2018-09-01T04:16:50.420Z,117
2018-09-01T04:17:20.406Z,123
2018-09-01T04:17:50.524Z,133
2018-09-01T04:18:20.468Z,143
2018-09-01T04:18:50.516Z,150
2018-09-01T04:19:20.522Z,160
2018-09-01T04:19:50.575Z,170
2018-09-01T04:20:20.580Z,180
2018-09-01T04:20:50.663Z,193
2018-09-01T04:21:20.644Z,203
2018-09-01T04:21:50.739Z,213
2018-09-01T04:22:20.705Z,223
2018-09-01T04:22:50.760Z,237
2018-09-01T04:23:20.879Z,250
2018-09-01T04:23:50.812Z,263
2018-09-01T04:24:20.883Z,277
2018-09-01T04:24:50.869Z,290
2018-09-01T04:25:20.880Z,307
2018-09-01T04:25:50.934Z,320
2018-09-01T04:26:20.978Z,337
2018-09-01T04:26:51.000Z,340
2018-09-01T04:27:21.008Z,370
2018-09-01T04:27:51.061Z,390
2018-09-01T04:28:21.202Z,407
2018-09-01T04:28:51.121Z,427
2018-09-01T04:29:21.161Z,443
2018-09-01T04:29:51.176Z,463
2018-09-01T04:30:21.239Z,487
2018-09-01T04:30:51.300Z,507
2018-09-01T04:31:21.312Z,530
2018-09-01T04:31:51.383Z,557
2018-09-01T04:32:21.365Z,580
2018-09-01T04:32:51.408Z,607
2018-09-01T04:33:21.425Z,633
2018-09-01T04:33:51.477Z,657
2018-09-01T04:34:21.466Z,687
2018-09-01T04:34:51.496Z,717
2018-09-01T04:35:21.547Z,747
2018-09-01T04:35:51.584Z,777
2018-09-01T04:36:21.622Z,807
2018-09-01T04:36:51.631Z,837
2018-09-01T04:37:21.624Z,863
2018-09-01T04:37:51.691Z,890
2018-09-01T04:38:21.679Z,920
2018-09-01T04:38:51.740Z,950
2018-09-01T04:39:21.748Z,980
2018-09-01T04:39:51.798Z,1013
2018-09-01T04:40:21.821Z,1047
2018-09-01T04:40:51.853Z,1077
2018-09-01T04:41:21.875Z,1113
2018-09-01T04:41:51.916Z,1150
2018-09-01T04:42:21.938Z,1187
2018-09-01T04:42:51.984Z,1227
2018-09-01T04:43:21.990Z,1263
2018-09-01T04:43:52.039Z,1297
2018-09-01T04:44:22.066Z,1337
2018-09-01T04:44:52.105Z,1377
2018-09-01T04:45:22.117Z,1417
2018-09-01T04:45:52.183Z,1457
2018-09-01T04:46:22.198Z,1493
2018-09-01T04:46:52.295Z,1533
2018-09-01T04:47:22.268Z,1573
2018-09-01T04:47:52.327Z,1613
2018-09-01T04:48:22.337Z,1650
2018-09-01T04:48:52.357Z,1683
2018-09-01T04:49:22.355Z,1717
2018-09-01T04:49:52.453Z,1753
2018-09-01T04:50:22.483Z,1793
2018-09-01T04:50:52.533Z,1833
2018-09-01T04:51:22.503Z,1873
2018-09-01T04:51:52.573Z,1913
2018-09-01T04:52:22.584Z,1957
2018-09-01T04:52:52.621Z,2000
2018-09-01T04:53:22.676Z,2050
2018-09-01T04:53:52.698Z,2097
2018-09-01T04:54:22.731Z,2143
2018-09-01T04:54:52.752Z,2187
2018-09-01T04:55:22.774Z,2233
2018-09-01T04:55:52.833Z,2280
2018-09-01T04:56:22.832Z,2327
2018-09-01T04:56:52.909Z,2367
2018-09-01T04:57:22.878Z,2413
2018-09-01T04:57:52.924Z,2453
2018-09-01T04:58:22.991Z,2493
2018-09-01T04:58:52.958Z,2533
2018-09-01T04:59:22.970Z,2570
2018-09-01T04:59:53.067Z,2620
2018-09-01T05:00:23.037Z,2667
2018-09-01T05:00:53.216Z,2717
2018-09-01T05:01:23.305Z,2757
2018-09-01T05:01:53.190Z,2800
2018-09-01T05:02:23.198Z,2850
2018-09-01T05:02:53.301Z,2897
2018-09-01T05:03:23.277Z,2933
2018-09-01T05:03:53.329Z,2973
2018-09-01T05:04:23.345Z,3007
2018-09-01T05:04:53.334Z,3047
2018-09-01T05:05:23.399Z,3087
2018-09-01T05:05:53.443Z,3127
2018-09-01T05:06:23.403Z,3167
2018-09-01T05:06:53.531Z,3203
2018-09-01T05:07:23.491Z,3243
2018-09-01T05:07:53.569Z,3283
2018-09-01T05:08:23.569Z,3323
2018-09-01T05:08:53.576Z,3363
2018-09-01T05:09:23.659Z,3413
2018-09-01T05:09:53.737Z,3477
2018-09-01T05:10:23.703Z,3517
2018-09-01T05:10:53.700Z,3553
2018-09-01T05:11:23.772Z,3560
2018-09-01T05:11:53.759Z,3590
2018-09-01T05:12:23.800Z,3627
2018-09-01T05:12:53.837Z,3663
2018-09-01T05:13:23.845Z,3697
2018-09-01T05:13:53.888Z,3733
2018-09-01T05:14:23.900Z,3767
2018-09-01T05:14:53.945Z,3807
2018-09-01T05:15:23.961Z,3847
2018-09-01T05:15:54.006Z,3880
2018-09-01T05:16:24.022Z,3917
2018-09-01T05:16:54.067Z,3963
2018-09-01T05:17:24.087Z,4020
2018-09-01T05:17:54.128Z,4083
2018-09-01T05:18:24.199Z,4130
2018-09-01T05:18:54.202Z,4163
2018-09-01T05:19:24.201Z,4177
2018-09-01T05:19:54.316Z,4193
2018-09-01T05:20:24.263Z,4290
2018-09-01T05:20:54.413Z,4430
2018-09-01T05:21:24.378Z,4500
2018-09-01T05:21:54.388Z,4623
2018-09-01T05:22:24.415Z,4693
2018-09-01T05:22:54.491Z,4763
2018-09-01T05:23:24.515Z,4827
2018-09-01T05:23:54.550Z,4927
2018-09-01T05:24:24.537Z,5070
2018-09-01T05:24:54.622Z,5117
2018-09-01T05:25:24.590Z,4983
2018-09-01T05:25:54.650Z,4890
2018-09-01T05:26:24.633Z,4820
2018-09-01T05:26:54.728Z,4827
2018-09-01T05:27:24.693Z,4950
2018-09-01T05:27:54.773Z,5017
2018-09-01T05:28:24.764Z,4973
2018-09-01T05:28:54.822Z,4937
2018-09-01T05:29:24.897Z,4900
2018-09-01T05:29:54.903Z,4927
2018-09-01T05:30:24.890Z,4960
2018-09-01T05:30:55.060Z,4953
2018-09-01T05:31:24.981Z,4977
2018-09-01T05:31:55.019Z,5010
2018-09-01T05:32:25.011Z,5047
2018-09-01T05:32:55.051Z,5080
2018-09-01T05:33:25.072Z,5113
2018-09-01T05:33:55.159Z,5140
2018-09-01T05:34:25.143Z,5173
2018-09-01T05:34:55.215Z,5210
2018-09-01T05:35:25.195Z,5243
2018-09-01T05:35:55.283Z,5277
2018-09-01T05:36:25.339Z,5307
2018-09-01T05:36:55.334Z,5337
2018-09-01T05:37:25.322Z,5373
2018-09-01T05:37:55.421Z,5400
2018-09-01T05:38:25.439Z,5423
2018-09-01T05:38:55.465Z,5450
2018-09-01T05:39:25.493Z,5477
2018-09-01T05:39:55.514Z,5507
2018-09-01T05:40:25.531Z,5547
2018-09-01T05:40:55.616Z,5623
2018-09-01T05:41:25.645Z,5657
2018-09-01T05:41:55.660Z,5730
2018-09-01T05:42:25.645Z,5727
2018-09-01T05:42:55.713Z,5737
2018-09-01T05:43:25.677Z,5870
2018-09-01T05:43:55.771Z,6020
2018-09-01T05:44:25.803Z,5993
2018-09-01T05:44:55.837Z,6003
2018-09-01T05:45:25.875Z,5930
2018-09-01T05:46:25.978Z,5953
2018-09-01T05:46:55.991Z,5983
2018-09-01T05:47:25.959Z,6020
2018-09-01T05:47:56.027Z,6063
2018-09-01T05:48:26.039Z,6110
2018-09-01T05:49:26.127Z,6143
2018-09-01T05:49:56.143Z,6157
2018-09-01T05:50:26.149Z,6187
2018-09-01T05:50:56.203Z,6210
2018-09-01T05:51:26.289Z,6247
2018-09-01T05:51:56.271Z,6273
2018-09-01T05:52:26.252Z,6307
2018-09-01T05:52:56.327Z,6343
2018-09-01T05:53:26.326Z,6377
2018-09-01T05:53:56.343Z,6477
2018-09-01T05:54:26.368Z,6557
2018-09-01T05:54:56.433Z,6630
2018-09-01T05:55:26.433Z,6663
2018-09-01T05:55:56.532Z,6623
2018-09-01T05:56:26.577Z,6570
2018-09-01T05:56:56.578Z,6593
2018-09-01T05:57:26.538Z,6613
2018-09-01T05:57:56.612Z,6663
2018-09-01T05:58:26.612Z,6827
2018-09-01T05:58:56.704Z,6823
2018-09-01T05:59:26.660Z,6813
2018-09-01T05:59:56.760Z,6783
2018-09-01T06:00:26.783Z,6817
2018-09-01T06:00:56.779Z,6850
2018-09-01T06:01:26.830Z,6870
2018-09-01T06:01:56.834Z,6900
2018-09-01T06:02:26.884Z,6923
2018-09-01T06:02:56.901Z,6947
2018-09-01T06:03:26.944Z,6967
2018-09-01T06:03:56.958Z,6990
2018-09-01T06:04:27.039Z,7023
2018-09-01T06:04:57.060Z,7050
2018-09-01T06:05:27.036Z,7077
2018-09-01T06:05:57.191Z,7110
2018-09-01T06:06:27.190Z,7150
2018-09-01T06:06:57.186Z,7190
2018-09-01T06:07:27.218Z,7233
2018-09-01T06:07:57.200Z,7267
2018-09-01T06:08:27.264Z,7303
2018-09-01T06:08:57.344Z,7343
2018-09-01T06:09:27.387Z,7377
2018-09-01T06:09:57.392Z,7413
2018-09-01T06:10:27.384Z,7457
2018-09-01T06:10:57.410Z,7490
2018-09-01T06:11:27.469Z,7533
2018-09-01T06:11:57.482Z,7773
2018-09-01T06:12:27.496Z,8277
2018-09-01T06:12:57.522Z,8450
2018-09-01T06:13:27.581Z,8423
2018-09-01T06:13:57.569Z,8193
2018-09-01T06:14:27.681Z,7950
2018-09-01T06:14:57.643Z,7823
2018-09-01T06:15:27.668Z,7693
2018-09-01T06:15:57.695Z,7713
2018-09-01T06:16:27.766Z,7730
2018-09-01T06:16:57.764Z,7750
2018-09-01T06:17:27.819Z,7770
2018-09-01T06:17:57.860Z,7797
2018-09-01T06:18:27.831Z,7823
2018-09-01T06:18:57.901Z,7850
2018-09-01T06:19:27.946Z,7880
2018-09-01T06:19:57.943Z,7897
2018-09-01T06:20:27.999Z,7923
2018-09-01T06:20:58.005Z,7950
2018-09-01T06:21:28.020Z,7977
2018-09-01T06:21:58.061Z,8013
2018-09-01T06:22:28.115Z,8050
2018-09-01T06:22:58.121Z,8093
2018-09-01T06:23:28.155Z,8127
2018-09-01T06:23:58.315Z,8170
2018-09-01T06:24:28.300Z,8210
2018-09-01T06:24:58.354Z,8250
2018-09-01T06:25:28.289Z,8290
2018-09-01T06:25:58.323Z,8320
2018-09-01T06:26:28.410Z,8343
2018-09-01T06:26:58.381Z,8367
2018-09-01T06:27:28.436Z,8393
2018-09-01T06:27:58.433Z,8420
2018-09-01T06:28:28.489Z,8457
2018-09-01T06:28:58.541Z,8533
2018-09-01T06:29:28.811Z,8630
2018-09-01T06:29:58.619Z,8690
2018-09-01T06:30:28.614Z,8763
2018-09-01T06:30:58.671Z,8820
2018-09-01T06:31:28.697Z,8880
2018-09-01T06:31:58.733Z,8943
2018-09-01T06:32:28.765Z,8977
2018-09-01T06:32:58.837Z,9023
2018-09-01T06:33:28.841Z,9153
2018-09-01T06:33:58.851Z,9083
2018-09-01T06:34:28.914Z,9000
2018-09-01T06:35:58.979Z,8990
2018-09-01T06:36:28.973Z,8997
2018-09-01T06:36:59.035Z,9180
2018-09-01T06:37:29.130Z,9263
2018-09-01T06:37:59.099Z,9353
2018-09-01T06:38:29.063Z,11093
2018-09-01T06:38:59.167Z,10057
2018-09-01T06:39:29.218Z,9490
2018-09-01T06:39:59.220Z,9357
2018-09-01T06:40:29.183Z,9347
2018-09-01T06:40:59.279Z,9380
2018-09-01T06:41:29.270Z,9480
2018-09-01T06:41:59.360Z,9470
2018-09-01T06:42:29.341Z,9547
2018-09-01T06:42:59.464Z,9447
2018-09-01T06:43:29.411Z,9560
2018-09-01T06:43:59.451Z,9460
2018-09-01T06:44:29.523Z,9523
2018-09-01T06:44:59.519Z,9417
2018-09-01T06:45:29.553Z,9430
2018-09-01T06:45:59.561Z,9453
2018-09-01T06:46:29.596Z,9450
2018-09-01T06:46:59.606Z,9487
2018-09-01T06:47:29.619Z,9490
2018-09-01T06:47:59.717Z,9523
2018-09-01T06:48:29.748Z,9563
2018-09-01T06:48:59.736Z,9583
2018-09-01T06:49:29.749Z,9630
2018-09-01T06:49:59.851Z,9647
2018-09-01T06:50:29.846Z,9697
2018-09-01T06:50:59.859Z,9757
2018-09-01T06:51:29.916Z,9767
2018-09-01T06:51:59.914Z,9813
2018-09-01T06:52:29.923Z,9877
2018-09-01T06:53:30.015Z,9907
2018-09-01T06:54:00.077Z,9963
2018-09-01T06:54:30.054Z,9937
2018-09-01T06:55:00.102Z,9970
2018-09-01T06:55:30.145Z,10033
2018-09-01T06:56:00.230Z,9960
2018-09-01T06:56:30.179Z,10007
2018-09-01T06:57:01.750Z,10060
2018-09-01T06:57:30.284Z,10130
2018-09-01T06:58:01.034Z,10107
2018-09-01T06:58:30.318Z,10133
2018-09-01T06:59:01.181Z,10073
2018-09-01T06:59:30.439Z,10063
2018-09-01T07:00:01.828Z,10070
2018-09-01T07:00:30.432Z,10100
2018-09-01T07:01:01.756Z,10217
2018-09-01T07:01:30.489Z,10157
2018-09-01T07:02:01.506Z,10173
2018-09-01T07:02:30.569Z,10203
2018-09-01T07:03:00.895Z,10247
2018-09-01T07:03:30.650Z,10240
2018-09-01T07:04:00.996Z,10277
2018-09-01T07:04:30.750Z,10320
2018-09-01T07:05:01.328Z,10387
2018-09-01T07:05:30.767Z,10453
2018-09-01T07:06:01.635Z,10520
2018-09-01T07:06:30.811Z,10587
2018-09-01T07:07:01.449Z,10670
2018-09-01T07:07:30.875Z,10767
2018-09-01T07:08:01.524Z,10850
2018-09-01T07:08:30.909Z,10917
2018-09-01T07:09:01.040Z,10923
2018-09-01T07:09:31.033Z,10963
2018-09-01T07:10:01.318Z,11027
2018-09-01T07:10:31.037Z,11050
2018-09-01T07:11:01.346Z,11090
2018-09-01T07:11:31.096Z,11113
2018-09-01T07:12:01.541Z,11130
2018-09-01T07:12:31.162Z,11157
2018-09-01T07:13:01.475Z,11197
2018-09-01T07:13:31.274Z,11213
2018-09-01T07:14:01.605Z,11203
2018-09-01T07:14:31.313Z,11217
2018-09-01T07:15:01.325Z,11260
2018-09-01T07:15:31.383Z,11283
2018-09-01T07:16:01.385Z,11327
2018-09-01T07:16:31.450Z,11363
2018-09-01T07:17:01.457Z,11400
2018-09-01T07:17:31.514Z,11443
2018-09-01T07:18:01.566Z,11500
2018-09-01T07:18:31.584Z,11563
2018-09-01T07:19:01.570Z,11690
2018-09-01T07:19:31.676Z,11933
2018-09-01T07:20:01.638Z,12067
2018-09-01T07:20:31.720Z,12420
2018-09-01T07:21:01.735Z,12890
2018-09-01T07:21:31.761Z,13643
2018-09-01T07:22:01.756Z,14580
2018-09-01T07:22:31.825Z,15630
2018-09-01T07:23:01.864Z,16870
2018-09-01T07:23:31.898Z,18330
2018-09-01T07:24:01.927Z,20580
2018-09-01T07:24:31.920Z,23010
2018-09-01T07:25:01.945Z,25837
2018-09-01T07:25:31.977Z,28613
2018-09-01T07:26:02.065Z,30223
2018-09-01T07:26:32.088Z,31460
2018-09-01T07:27:02.066Z,31033
2018-09-01T07:27:32.148Z,29420
2018-09-01T07:28:02.128Z,27567
2018-09-01T07:28:32.206Z,26473
2018-09-01T07:29:02.214Z,25793
2018-09-01T07:29:32.203Z,25537
2018-09-01T07:30:02.284Z,25343
2018-09-01T07:30:32.416Z,25320
2018-09-01T07:31:02.694Z,24970
2018-09-01T07:31:32.792Z,24370
2018-09-01T07:32:02.381Z,22717
2018-09-01T07:32:32.432Z,20647
2018-09-01T07:33:02.549Z,19473
2018-09-01T07:33:32.455Z,18467
2018-09-01T07:34:02.530Z,17517
2018-09-01T07:34:32.548Z,16373
2018-09-01T07:35:02.582Z,15320
2018-09-01T07:35:32.604Z,14673
2018-09-01T07:36:02.654Z,14057
2018-09-01T07:36:32.641Z,13877
2018-09-01T07:37:02.690Z,14200
2018-09-01T07:37:32.726Z,15067
2018-09-01T07:38:02.796Z,15890
2018-09-01T07:38:32.759Z,16300
2018-09-01T07:39:02.853Z,16423
2018-09-01T07:39:32.895Z,16627
2018-09-01T07:40:02.872Z,16720
2018-09-01T07:40:32.891Z,16487
2018-09-01T07:41:02.977Z,16317
2018-09-01T07:41:33.044Z,15770
2018-09-01T07:42:02.994Z,15687
2018-09-01T07:42:33.063Z,14983
2018-09-01T07:43:03.062Z,14477
2018-09-01T07:43:33.117Z,13980
2018-09-01T07:44:03.160Z,13653
2018-09-01T07:44:33.134Z,13380
2018-09-01T07:45:03.181Z,13013
2018-09-01T07:45:33.209Z,12717
2018-09-01T07:46:03.282Z,12597
2018-09-01T07:46:33.300Z,12670
2018-09-01T07:47:03.631Z,12703
2018-09-01T07:47:33.370Z,12797
2018-09-01T07:48:03.397Z,12953
2018-09-01T07:48:33.430Z,13227
2018-09-01T07:49:03.479Z,13510
2018-09-01T07:49:33.480Z,13667
2018-09-01T07:50:03.583Z,13800
2018-09-01T07:50:33.531Z,13753
2018-09-01T07:51:03.626Z,13703
2018-09-01T07:51:33.615Z,14260
2018-09-01T07:52:04.132Z,14200
2018-09-01T07:52:33.697Z,14657
2018-09-01T07:53:03.735Z,15247
2018-09-01T07:53:33.696Z,17530
2018-09-01T07:54:03.758Z,17827
2018-09-01T07:54:33.857Z,17453
2018-09-01T07:55:03.823Z,18380
2018-09-01T07:55:33.815Z,17653
2018-09-01T07:56:04.010Z,18337
2018-09-01T07:56:33.899Z,17977
2018-09-01T07:57:04.019Z,17667
2018-09-01T07:57:34.011Z,17197
2018-09-01T07:58:03.986Z,16423
2018-09-01T07:58:33.999Z,15683
2018-09-01T07:59:04.046Z,15130
2018-09-01T07:59:34.059Z,14893
2018-09-01T08:00:04.107Z,14890
2018-09-01T08:00:34.204Z,14857
2018-09-01T08:01:04.166Z,15060
2018-09-01T08:01:34.192Z,15520
2018-09-01T08:02:04.336Z,16023
2018-09-01T08:02:34.356Z,16323
2018-09-01T08:03:04.344Z,16847
2018-09-01T08:03:34.372Z,17270
2018-09-01T08:04:04.367Z,17487
2018-09-01T08:04:34.425Z,17633
2018-09-01T08:05:04.453Z,18133
2018-09-01T08:05:34.508Z,18377
2018-09-01T08:06:04.504Z,18577
2018-09-01T08:06:34.546Z,19240
2018-09-01T08:07:04.586Z,19400
2018-09-01T08:07:34.737Z,19747
2018-09-01T08:08:04.649Z,19920
2018-09-01T08:08:34.648Z,20127
2018-09-01T08:09:04.701Z,19837
2018-09-01T08:09:34.714Z,20020
2018-09-01T08:10:04.758Z,20157
2018-09-01T08:10:34.770Z,20387
2018-09-01T08:11:04.816Z,20603
2018-09-01T08:11:34.841Z,22587
2018-09-01T08:12:04.844Z,23063
2018-09-01T08:12:34.919Z,23540
2018-09-01T08:13:04.939Z,23860
2018-09-01T08:13:35.012Z,21730
2018-09-01T08:14:05.278Z,21423
2018-09-01T08:14:35.104Z,20800
2018-09-01T08:15:05.054Z,20043
2018-09-01T08:15:35.052Z,19470
2018-09-01T08:16:05.180Z,19003
2018-09-01T08:16:35.157Z,18603
2018-09-01T08:17:05.194Z,17863
2018-09-01T08:17:35.216Z,17233
2018-09-01T08:18:05.252Z,16643
2018-09-01T08:18:35.283Z,16250
2018-09-01T08:19:05.313Z,15780
2018-09-01T08:19:35.378Z,15483
2018-09-01T08:20:05.373Z,15110
2018-09-01T08:20:35.397Z,14900
2018-09-01T08:21:05.414Z,14743
2018-09-01T08:21:35.433Z,14490
2018-09-01T08:22:05.480Z,15173
2018-09-01T08:22:35.523Z,14947
2018-09-01T08:23:05.525Z,14437
2018-09-01T08:23:35.615Z,14587
2018-09-01T08:24:05.583Z,14337
2018-09-01T08:24:35.638Z,14737
2018-09-01T08:25:05.690Z,14720
2018-09-01T08:25:35.707Z,14657
2018-09-01T08:26:05.766Z,14380
2018-09-01T08:26:35.790Z,14417
2018-09-01T08:27:05.766Z,14603
2018-09-01T08:27:35.780Z,14837
2018-09-01T08:28:05.837Z,15067
2018-09-01T08:28:35.848Z,15367
2018-09-01T08:29:05.892Z,15750
2018-09-01T08:29:35.963Z,15937
2018-09-01T08:30:05.960Z,16203
2018-09-01T08:30:35.984Z,16587
2018-09-01T08:31:06.018Z,17223
2018-09-01T08:31:36.076Z,17820
2018-09-01T08:32:06.130Z,18727
2018-09-01T08:32:36.147Z,19747
2018-09-01T08:33:06.142Z,20737
2018-09-01T08:33:36.227Z,21873
2018-09-01T08:34:06.257Z,22870
2018-09-01T08:34:36.280Z,23363
2018-09-01T08:35:06.302Z,23563
2018-09-01T08:35:36.321Z,23347
2018-09-01T08:36:06.380Z,22980
2018-09-01T08:36:36.402Z,22537
2018-09-01T08:37:36.433Z,20960
2018-09-01T08:38:06.511Z,20243
2018-09-01T08:38:36.533Z,20273
2018-09-01T08:39:06.567Z,20003
2018-09-01T08:39:36.589Z,26033
2018-09-01T08:40:06.610Z,21147
2018-09-01T08:40:36.636Z,21930
2018-09-01T08:41:06.655Z,20097
2018-09-01T08:41:36.901Z,18423
2018-09-01T08:42:06.719Z,18057
2018-09-01T08:42:36.740Z,18780
2018-09-01T08:43:06.797Z,19563
2018-09-01T08:43:36.797Z,20113
2018-09-01T08:44:06.832Z,20437
2018-09-01T08:44:36.841Z,20930
2018-09-01T08:45:06.891Z,24220
2018-09-01T08:45:36.892Z,22663
2018-09-01T08:46:06.945Z,23817
2018-09-01T08:46:36.985Z,26243
2018-09-01T08:47:07.005Z,40077
2018-09-01T08:47:37.022Z,30083
2018-09-01T08:48:07.060Z,38653
2018-09-01T08:48:37.125Z,30437
2018-09-01T08:49:07.122Z,31183
2018-09-01T08:49:37.157Z,35423
2018-09-01T08:50:07.191Z,29477
2018-09-01T08:50:37.227Z,30103
2018-09-01T08:51:07.251Z,31837
2018-09-01T08:51:37.363Z,34360
2018-09-01T08:52:07.330Z,34173
2018-09-01T08:52:37.416Z,34413
2018-09-01T08:53:07.440Z,34343
2018-09-01T08:53:37.449Z,34083
2018-09-01T08:54:07.559Z,34267
2018-09-01T08:54:37.507Z,34797
2018-09-01T08:55:07.560Z,36217
2018-09-01T08:55:37.557Z,38670
2018-09-01T08:56:07.603Z,40893
2018-09-01T08:56:37.729Z,42897
2018-09-01T08:57:07.672Z,45123
2018-09-01T08:57:37.675Z,46173
2018-09-01T08:58:07.728Z,45127
2018-09-01T08:58:37.757Z,43400
2018-09-01T08:59:07.793Z,41107
2018-09-01T08:59:37.802Z,41400
2018-09-01T09:00:07.851Z,46197
2018-09-01T09:00:37.820Z,41747
2018-09-01T09:01:07.953Z,42433
2018-09-01T09:01:37.910Z,43353
2018-09-01T09:02:07.979Z,45163
2018-09-01T09:02:37.941Z,50530
2018-09-01T09:03:07.985Z,53480
2018-09-01T09:03:38.011Z,48957
2018-09-01T09:04:08.101Z,59430
2018-09-01T09:04:38.117Z,49413
2018-09-01T09:05:08.135Z,58900
2018-09-01T09:05:38.279Z,39750
2018-09-01T09:06:08.212Z,41700
2018-09-01T09:06:38.293Z,36160
2018-09-01T09:07:08.288Z,37313
2018-09-01T09:07:38.315Z,35690
2018-09-01T09:08:08.380Z,37353
2018-09-01T09:08:38.383Z,39230
2018-09-01T09:09:08.428Z,41797
2018-09-01T09:09:38.369Z,43487
2018-09-01T09:10:08.438Z,43850
2018-09-01T09:10:38.503Z,43557
2018-09-01T09:11:08.569Z,50197
2018-09-01T09:11:38.595Z,50620
2018-09-01T09:12:08.588Z,47430
2018-09-01T09:12:38.594Z,51930
2018-09-01T09:13:08.603Z,48417
2018-09-01T09:13:38.617Z,47117
2018-09-01T09:14:08.668Z,47500
2018-09-01T09:14:38.698Z,49453
2018-09-01T09:15:08.724Z,51460
2018-09-01T09:15:38.748Z,67177
2018-09-01T09:16:08.816Z,73983
2018-09-01T09:16:38.869Z,102993
2018-09-01T09:17:08.851Z,101307
2018-09-01T09:17:38.866Z,99020
2018-09-01T09:18:08.944Z,102020
2018-09-01T09:18:38.985Z,101123
2018-09-01T09:19:08.972Z,79187
2018-09-01T09:19:38.990Z,105407
2018-09-01T09:20:09.044Z,104527
2018-09-01T09:20:39.086Z,50843
2018-09-01T09:21:09.095Z,104420
2018-09-01T09:21:39.178Z,83150
2018-09-01T09:22:09.165Z,92250
2018-09-01T09:22:39.199Z,78957
2018-09-01T09:23:09.304Z,45497
2018-09-01T09:23:39.316Z,97350
2018-09-01T09:24:09.280Z,98533
2018-09-01T09:24:39.321Z,65180
2018-09-01T09:25:09.388Z,51140
2018-09-01T09:25:39.376Z,48557
2018-09-01T09:26:09.446Z,93277
2018-09-01T09:26:39.506Z,82860
2018-09-01T09:27:09.508Z,107607
2018-09-01T09:27:39.540Z,103400
2018-09-01T09:28:09.542Z,106487
2018-09-01T09:28:39.559Z,95633
2018-09-01T09:29:09.626Z,51357
2018-09-01T09:29:39.620Z,41387
2018-09-01T09:30:09.660Z,41277
2018-09-01T09:30:39.669Z,49280
2018-09-01T09:31:09.727Z,102277
2018-09-01T09:31:39.785Z,98477
2018-09-01T09:32:09.783Z,96497
2018-09-01T09:32:39.793Z,104203
2018-09-01T09:33:09.846Z,103330
2018-09-01T09:33:39.853Z,63787
2018-09-01T09:34:09.913Z,106223
2018-09-01T09:34:39.975Z,102403
2018-09-01T09:35:09.959Z,103250
2018-09-01T09:35:40.044Z,101700
2018-09-01T09:36:10.023Z,89223
2018-09-01T09:36:40.060Z,86967
2018-09-01T09:37:10.078Z,91427
2018-09-01T09:37:40.096Z,82720
2018-09-01T09:38:10.173Z,84437
2018-09-01T09:38:40.159Z,97447
2018-09-01T09:39:10.246Z,37267
2018-09-01T09:39:40.250Z,40203
2018-09-01T09:40:10.301Z,61310
2018-09-01T09:40:40.310Z,78347
2018-09-01T09:41:10.367Z,104337
2018-09-01T09:41:40.403Z,103113
2018-09-01T09:42:10.433Z,100633
2018-09-01T09:42:40.431Z,32737
2018-09-01T09:43:10.484Z,27370
2018-09-01T09:43:40.497Z,26100
2018-09-01T09:44:10.560Z,25563
2018-09-01T09:44:40.599Z,25013
2018-09-01T09:45:10.621Z,23657
2018-09-01T09:45:40.670Z,22007
2018-09-01T09:46:10.704Z,22600
2018-09-01T09:46:40.698Z,25127
2018-09-01T09:47:10.766Z,27633
2018-09-01T09:47:40.719Z,31840
2018-09-01T09:48:10.797Z,67813
2018-09-01T09:48:40.767Z,103063
2018-09-01T09:49:10.833Z,104727
2018-09-01T09:49:40.863Z,104663
2018-09-01T09:50:10.939Z,102273
2018-09-01T09:50:40.927Z,100660
2018-09-01T09:51:11.049Z,90233
2018-09-01T09:51:41.025Z,35460
2018-09-01T09:52:11.066Z,33917
2018-09-01T09:52:41.063Z,42490
2018-09-01T09:53:11.129Z,36260
2018-09-01T09:53:41.080Z,35070
2018-09-01T09:54:11.181Z,96363
2018-09-01T09:54:41.138Z,95557
2018-09-01T09:55:11.231Z,94780
2018-09-01T09:55:41.314Z,93730
2018-09-01T09:56:11.336Z,92850
2018-09-01T09:56:41.301Z,94623
2018-09-01T09:57:11.382Z,95820
2018-09-01T09:57:41.332Z,97150
2018-09-01T09:58:11.443Z,97690
2018-09-01T09:58:41.433Z,97680
2018-09-01T09:59:11.499Z,96103
2018-09-01T09:59:41.523Z,98283
2018-09-01T10:00:11.512Z,99763
2018-09-01T10:00:41.537Z,100383
2018-09-01T10:01:11.607Z,100150
2018-09-01T10:01:41.636Z,98537
2018-09-01T10:02:11.645Z,97027
2018-09-01T10:02:41.693Z,96400
2018-09-01T10:03:11.685Z,96003
2018-09-01T10:03:41.709Z,96720
2018-09-01T10:04:11.771Z,96037
2018-09-01T10:04:41.763Z,91270
2018-09-01T10:05:11.838Z,76940
2018-09-01T10:05:41.924Z,90110
2018-09-01T10:06:12.129Z,40690
2018-09-01T10:06:41.881Z,47647
2018-09-01T10:07:11.934Z,107257
2018-09-01T10:07:41.958Z,72217
2018-09-01T10:08:12.012Z,108800
2018-09-01T10:08:42.019Z,108003
2018-09-01T10:09:12.126Z,105733
2018-09-01T10:09:42.090Z,105603
2018-09-01T10:10:12.122Z,104460
2018-09-01T10:10:42.136Z,103843
2018-09-01T10:11:12.625Z,104753
2018-09-01T10:11:42.248Z,106980
2018-09-01T10:12:12.255Z,108570
2018-09-01T10:12:42.254Z,106333
2018-09-01T10:13:12.343Z,109263
2018-09-01T10:13:42.396Z,107593
2018-09-01T10:14:12.429Z,104590
2018-09-01T10:14:42.421Z,101923
2018-09-01T10:15:12.445Z,99993
2018-09-01T10:15:42.469Z,91613
2018-09-01T10:16:12.559Z,97127
2018-09-01T10:16:42.584Z,98607
2018-09-01T10:17:12.554Z,100693
2018-09-01T10:17:42.617Z,100820
2018-09-01T10:18:12.637Z,101097
2018-09-01T10:18:42.627Z,101177
2018-09-01T10:19:12.731Z,100973
2018-09-01T10:19:42.730Z,101117
2018-09-01T10:20:12.882Z,101327
2018-09-01T10:20:42.760Z,101640
2018-09-01T10:21:12.844Z,102867
2018-09-01T10:21:42.810Z,104373
2018-09-01T10:22:12.855Z,105737
2018-09-01T10:22:42.880Z,106730
2018-09-01T10:23:12.916Z,108047
2018-09-01T10:23:42.939Z,108890
2018-09-01T10:24:12.983Z,110753
2018-09-01T10:24:43.049Z,105123
2018-09-01T10:25:13.039Z,42370
2018-09-01T10:25:43.065Z,40233
2018-09-01T10:26:13.171Z,50270
2018-09-01T10:26:43.127Z,91297
2018-09-01T10:27:13.208Z,107343
2018-09-01T10:27:43.177Z,106850
2018-09-01T10:28:13.240Z,106840
2018-09-01T10:28:43.236Z,106943
2018-09-01T10:29:13.355Z,107837
2018-09-01T10:29:43.315Z,107167
2018-09-01T10:30:13.388Z,107993
2018-09-01T10:30:43.409Z,109823
2018-09-01T10:31:13.482Z,109267
2018-09-01T10:31:43.463Z,107967
2018-09-01T10:32:13.515Z,106577
2018-09-01T10:32:43.515Z,105820
2018-09-01T10:33:13.590Z,105240
2018-09-01T10:33:43.574Z,104450
2018-09-01T10:34:13.633Z,103683
2018-09-01T10:34:43.648Z,104037
2018-09-01T10:35:13.727Z,104510
2018-09-01T10:35:43.711Z,102830
2018-09-01T10:36:13.791Z,102300
2018-09-01T10:36:43.803Z,101920
2018-09-01T10:37:13.816Z,102057
2018-09-01T10:37:43.838Z,101197
2018-09-01T10:38:13.886Z,100420
2018-09-01T10:38:43.894Z,102827
2018-09-01T10:39:13.955Z,104163